Terminal Aerodrome Forecast
Issued by NWS North Platte, NE

Home | Current Version | Previous Version | Graphics & Text | Print | Product List | Glossary Off
Versions: 1 2 3 4 5 6 7 8 9 10 11 12

400
FTUS43 KLBF 271934 RRB
TAFVTN
TAF
KVTN 271934Z 2720/2818 21015G21KT P6SM BKN200
     FM272200 20009KT P6SM BKN150
     FM280200 17007KT P6SM BKN090
     FM280300 16007KT P6SM BKN060
     FM280600 31005KT P6SM BKN050
     FM280900 31009KT P6SM BKN110
     FM281200 28007KT P6SM BKN090
     FM281600 31008KT P6SM BKN010=

USA.gov is the U.S. government's official web portal to all federal, state and local government web resources and services.